Time;durP1;ratioP1;P1;durP2;ratioP2;P2;SDS_P1;SDS_P2;PMS_P1;PMS_P2;Temp;Humidity;BMP_temperature;BMP_pressure;BME280_temperature;BME280_humidity;BME280_pressure;Samples;Min_cycle;Max_cycle;Signal;HPM_P1;HPM_P2
2021/12/18 00:01:00;;;;;;;;;;;5.20;99.90;;;;;;5115026;28;20063;-86
2021/12/18 00:03:26;;;;;;;;;;;5.20;99.90;;;;;;5114037;28;19948;-85
2021/12/18 00:05:53;;;;;;;;;;;5.20;99.90;;;;;;5114896;28;20038;-87
2021/12/18 00:08:20;;;;;;;;;;;5.30;99.90;;;;;;5114887;28;20036;-85
2021/12/18 00:10:46;;;;;;;;;;;5.30;99.90;;;;;;5133672;27;20497;-85
2021/12/18 00:13:15;;;;;;;;;;;5.30;99.90;;;;;;5133932;27;20035;-86
2021/12/18 00:15:41;;;;;;;;;;;5.20;99.90;;;;;;5135700;27;20012;-86
2021/12/18 00:18:08;;;;;;;;;;;5.30;99.90;;;;;;5118014;27;19951;-85
2021/12/18 00:20:36;;;;;;;;;;;5.20;99.90;;;;;;5114896;28;20166;-87
2021/12/18 00:23:03;;;;;;;;;;;5.20;99.90;;;;;;5115210;28;20293;-85
2021/12/18 00:25:30;;;;;;;;;;;5.30;99.90;;;;;;5114943;28;20384;-86
2021/12/18 00:27:56;;;;;;;;;;;5.30;99.90;;;;;;5114919;28;20045;-84
2021/12/18 00:30:25;;;;;;;;;;;5.30;99.90;;;;;;5114836;28;20053;-86
2021/12/18 00:32:53;;;;;;;;;;;5.30;99.90;;;;;;5115566;27;20318;-86
2021/12/18 00:35:19;;;;;;;;;;;5.30;99.90;;;;;;5114643;28;20038;-85
2021/12/18 00:37:46;;;;;;;;;;;5.30;99.90;;;;;;5114700;28;20046;-86
2021/12/18 00:40:19;;;;;;;;;;;5.30;99.90;;;;;;5123555;27;19989;-85
2021/12/18 00:42:49;;;;;;;;;;;5.40;99.90;;;;;;5135338;27;20050;-86
2021/12/18 00:45:16;;;;;;;;;;;5.30;99.90;;;;;;5125684;27;20031;-85
2021/12/18 00:47:46;;;;;;;;;;;5.30;99.90;;;;;;5114698;28;20034;-86
2021/12/18 00:50:14;;;;;;;;;;;5.20;99.90;;;;;;5122723;27;20031;-87
2021/12/18 00:52:42;;;;;;;;;;;5.10;99.90;;;;;;5129270;27;20035;-86
2021/12/18 00:55:09;;;;;;;;;;;5.20;99.90;;;;;;5114402;28;19963;-86
2021/12/18 00:57:36;;;;;;;;;;;5.20;99.90;;;;;;5117352;27;19982;-84
2021/12/18 01:00:04;;;;;;;;;;;5.20;99.90;;;;;;5135384;27;19960;-86
2021/12/18 01:02:31;;;;;;;;;;;5.20;99.90;;;;;;5132447;27;19965;-84
2021/12/18 01:04:59;;;;;;;;;;;5.20;99.90;;;;;;5114667;28;19987;-85
2021/12/18 01:07:25;;;;;;;;;;;5.30;99.90;;;;;;5114804;28;20032;-86
2021/12/18 01:10:02;;;;;;;;;;;5.30;99.90;;;;;;5133354;27;20048;-85
2021/12/18 01:12:34;;;;;;;;;;;5.40;99.90;;;;;;5133533;27;19958;-84
2021/12/18 01:15:13;;;;;;;;;;;5.30;99.90;;;;;;5113749;28;20277;-86
2021/12/18 01:23:11;;;;;;;;;;;5.30;99.90;;;;;;5118884;27;19972;-85
2021/12/18 01:25:37;;;;;;;;;;;5.30;99.90;;;;;;5134581;27;20052;-85
2021/12/18 01:28:04;;;;;;;;;;;5.20;99.90;;;;;;5130258;28;20374;-86
2021/12/18 01:30:31;;;;;;;;;;;5.20;99.90;;;;;;5115578;28;20046;-86
2021/12/18 01:32:58;;;;;;;;;;;5.20;99.90;;;;;;5114870;28;20455;-85
2021/12/18 01:35:25;;;;;;;;;;;5.10;99.90;;;;;;5116009;28;20028;-86
2021/12/18 01:37:53;;;;;;;;;;;5.00;99.90;;;;;;5114853;28;20429;-86
2021/12/18 01:40:21;;;;;;;;;;;5.10;99.90;;;;;;5135857;28;20044;-86
2021/12/18 01:45:38;;;;;;;;;;;5.00;99.90;;;;;;5111102;28;19950;-87
2021/12/18 01:53:34;;;;;;;;;;;5.30;99.90;;;;;;5113910;28;20476;-85
2021/12/18 01:56:01;;;;;;;;;;;5.10;99.90;;;;;;5113717;28;20052;-86
2021/12/18 01:58:28;;;;;;;;;;;5.30;99.90;;;;;;5113752;28;20042;-86
2021/12/18 02:00:55;;;;;;;;;;;5.00;99.90;;;;;;5131604;28;19946;-85
2021/12/18 02:03:22;;;;;;;;;;;5.00;99.90;;;;;;5134378;27;20365;-86
2021/12/18 02:05:49;;;;;;;;;;;5.20;99.90;;;;;;5121088;27;20038;-85
2021/12/18 02:08:18;;;;;;;;;;;5.10;99.90;;;;;;5117669;28;19952;-87
2021/12/18 02:10:47;;;;;;;;;;;5.00;99.90;;;;;;5117113;28;20001;-85
2021/12/18 02:13:25;;;;;;;;;;;5.10;99.90;;;;;;5117593;28;19953;-86
2021/12/18 02:21:25;;;;;;;;;;;4.90;99.90;;;;;;5116677;28;20091;-85
2021/12/18 02:23:51;;;;;;;;;;;4.90;99.90;;;;;;5117478;28;20042;-86
2021/12/18 02:26:18;;;;;;;;;;;4.80;99.90;;;;;;5117003;28;19980;-85
2021/12/18 02:28:47;;;;;;;;;;;4.80;99.90;;;;;;5117217;28;19985;-86
2021/12/18 02:31:15;;;;;;;;;;;4.80;99.90;;;;;;5117128;28;19988;-86
2021/12/18 02:33:42;;;;;;;;;;;5.00;99.90;;;;;;5117144;28;19981;-87
2021/12/18 02:36:11;;;;;;;;;;;4.80;99.90;;;;;;5116799;28;19949;-84
2021/12/18 02:38:59;;;;;;;;;;;4.90;99.90;;;;;;5117076;28;20320;-86
2021/12/18 02:41:31;;;;;;;;;;;4.80;99.90;;;;;;5116750;28;19961;-86
2021/12/18 02:43:58;;;;;;;;;;;4.70;99.90;;;;;;5117097;28;20308;-84
2021/12/18 02:46:25;;;;;;;;;;;4.80;99.90;;;;;;5116574;28;19940;-85
2021/12/18 02:48:53;;;;;;;;;;;4.80;99.90;;;;;;5117084;28;19949;-84
2021/12/18 02:51:20;;;;;;;;;;;4.80;99.90;;;;;;5116591;28;20042;-86
2021/12/18 02:53:49;;;;;;;;;;;5.00;99.90;;;;;;5116927;28;20395;-87
2021/12/18 02:56:19;;;;;;;;;;;5.00;99.90;;;;;;5116462;28;20048;-87
2021/12/18 02:58:48;;;;;;;;;;;4.90;99.90;;;;;;5116717;28;20036;-87
2021/12/18 03:01:16;;;;;;;;;;;4.80;99.90;;;;;;5116572;28;19948;-84
2021/12/18 03:03:44;;;;;;;;;;;4.70;99.90;;;;;;5096587;28;20044;-86
2021/12/18 03:06:21;;;;;;;;;;;4.70;99.90;;;;;;5096204;28;20217;-86
2021/12/18 03:08:58;;;;;;;;;;;4.70;99.90;;;;;;5096014;28;19949;-85
2021/12/18 03:22:57;;;;;;;;;;;4.60;99.90;;;;;;5113518;28;19966;-87
2021/12/18 03:25:27;;;;;;;;;;;4.60;99.90;;;;;;5115779;28;19945;-85
2021/12/18 03:27:54;;;;;;;;;;;4.70;99.90;;;;;;5116504;28;19956;-84
2021/12/18 03:30:21;;;;;;;;;;;4.80;99.90;;;;;;5115678;28;19967;-87
2021/12/18 03:32:48;;;;;;;;;;;4.60;99.90;;;;;;5116285;28;20040;-85
2021/12/18 03:35:15;;;;;;;;;;;4.60;99.90;;;;;;5116032;28;20028;-84
2021/12/18 03:37:42;;;;;;;;;;;4.90;99.90;;;;;;5116355;28;19997;-84
2021/12/18 03:40:10;;;;;;;;;;;4.70;99.90;;;;;;5116059;28;20023;-86
2021/12/18 03:42:39;;;;;;;;;;;4.60;99.90;;;;;;5115942;28;20394;-86
2021/12/18 03:45:07;;;;;;;;;;;4.40;99.90;;;;;;5115697;28;20021;-87
2021/12/18 03:47:33;;;;;;;;;;;4.50;99.90;;;;;;5117195;28;20029;-91
2021/12/18 03:50:00;;;;;;;;;;;4.60;99.90;;;;;;5116046;28;20368;-86
2021/12/18 03:52:27;;;;;;;;;;;4.50;99.90;;;;;;5115769;28;20033;-83
2021/12/18 03:54:53;;;;;;;;;;;4.70;99.90;;;;;;5115318;28;20005;-85
2021/12/18 03:57:20;;;;;;;;;;;4.50;99.90;;;;;;5117451;28;20009;-88
2021/12/18 03:59:48;;;;;;;;;;;4.60;99.90;;;;;;5116178;28;20039;-86
2021/12/18 04:02:15;;;;;;;;;;;4.60;99.90;;;;;;5115601;28;20062;-85
2021/12/18 04:04:41;;;;;;;;;;;4.70;99.90;;;;;;5115070;28;20036;-83
2021/12/18 04:07:08;;;;;;;;;;;4.50;99.90;;;;;;5115389;28;20042;-84
2021/12/18 04:09:35;;;;;;;;;;;4.50;99.90;;;;;;5123183;27;20501;-85
2021/12/18 04:12:02;;;;;;;;;;;4.50;99.90;;;;;;5135826;27;20031;-85
2021/12/18 04:14:29;;;;;;;;;;;4.50;99.90;;;;;;5135842;27;20035;-86
2021/12/18 04:16:57;;;;;;;;;;;4.50;99.90;;;;;;5135858;27;19995;-85
2021/12/18 04:19:24;;;;;;;;;;;4.70;99.90;;;;;;5124599;27;20036;-86
2021/12/18 04:21:51;;;;;;;;;;;4.40;99.90;;;;;;5115083;28;20336;-86
2021/12/18 04:24:17;;;;;;;;;;;4.40;99.90;;;;;;5115094;28;19948;-86
2021/12/18 04:26:44;;;;;;;;;;;4.50;99.90;;;;;;5114940;28;20142;-86
2021/12/18 04:29:11;;;;;;;;;;;4.60;99.90;;;;;;5121499;27;20041;-86
2021/12/18 04:31:38;;;;;;;;;;;4.50;99.90;;;;;;5135489;27;20038;-86
2021/12/18 04:34:07;;;;;;;;;;;4.70;99.90;;;;;;5128874;27;20040;-87
2021/12/18 04:36:34;;;;;;;;;;;4.90;99.90;;;;;;5114856;28;20379;-86
2021/12/18 04:39:01;;;;;;;;;;;4.60;99.90;;;;;;5124577;27;20063;-86
2021/12/18 04:41:38;;;;;;;;;;;4.60;99.90;;;;;;5135465;27;19999;-86
2021/12/18 04:44:05;;;;;;;;;;;4.50;99.90;;;;;;5124223;27;19946;-85
2021/12/18 04:46:32;;;;;;;;;;;4.40;99.90;;;;;;5114571;28;20037;-86
2021/12/18 04:48:58;;;;;;;;;;;4.50;99.90;;;;;;5123516;27;19992;-85
2021/12/18 04:51:26;;;;;;;;;;;4.50;99.90;;;;;;5135060;27;20034;-85
2021/12/18 04:53:53;;;;;;;;;;;4.40;99.90;;;;;;5134531;27;20126;-85
2021/12/18 04:56:20;;;;;;;;;;;4.30;99.90;;;;;;5135530;27;20369;-85
2021/12/18 04:58:46;;;;;;;;;;;4.60;99.90;;;;;;5135508;27;20040;-85
2021/12/18 05:01:13;;;;;;;;;;;4.40;99.90;;;;;;5135147;27;19993;-85
2021/12/18 05:03:41;;;;;;;;;;;4.40;99.90;;;;;;5129639;27;19998;-85
2021/12/18 05:06:08;;;;;;;;;;;4.40;99.90;;;;;;5114301;28;20016;-85
2021/12/18 05:08:36;;;;;;;;;;;4.30;99.90;;;;;;5117179;27;20038;-84
2021/12/18 05:11:03;;;;;;;;;;;4.70;99.90;;;;;;5094001;28;20040;-84
2021/12/18 05:13:29;;;;;;;;;;;4.40;99.90;;;;;;5093751;28;20461;-85
2021/12/18 05:15:56;;;;;;;;;;;4.40;99.90;;;;;;5093782;28;20049;-85
2021/12/18 05:18:23;;;;;;;;;;;4.40;99.90;;;;;;5093266;28;20000;-87
2021/12/18 05:20:49;;;;;;;;;;;4.40;99.90;;;;;;5093913;28;20039;-86
2021/12/18 05:23:16;;;;;;;;;;;4.40;99.90;;;;;;5092719;28;20489;-84
2021/12/18 05:25:44;;;;;;;;;;;4.40;99.90;;;;;;5093866;28;19981;-85
2021/12/18 05:28:11;;;;;;;;;;;4.30;99.90;;;;;;5093084;28;19953;-85
2021/12/18 05:30:38;;;;;;;;;;;4.30;99.90;;;;;;5093519;28;20005;-84
2021/12/18 05:33:04;;;;;;;;;;;4.30;99.90;;;;;;5093157;28;20038;-84
2021/12/18 05:35:31;;;;;;;;;;;4.30;99.90;;;;;;5093532;28;19990;-85
2021/12/18 05:38:04;;;;;;;;;;;4.30;99.90;;;;;;5093021;28;20494;-84
2021/12/18 05:40:31;;;;;;;;;;;4.40;99.90;;;;;;5097351;28;19989;-86
2021/12/18 05:43:00;;;;;;;;;;;4.30;99.90;;;;;;5096928;28;20047;-85
2021/12/18 05:45:26;;;;;;;;;;;4.30;99.90;;;;;;5097550;28;19998;-85
2021/12/18 05:47:53;;;;;;;;;;;4.20;99.90;;;;;;5096821;28;20372;-85
2021/12/18 05:50:21;;;;;;;;;;;4.20;99.90;;;;;;5097657;28;20032;-85
2021/12/18 05:52:48;;;;;;;;;;;4.20;99.90;;;;;;5097235;28;20032;-84
2021/12/18 05:55:15;;;;;;;;;;;4.40;99.90;;;;;;5097565;28;19950;-84
2021/12/18 05:57:42;;;;;;;;;;;4.30;99.90;;;;;;5096871;28;19967;-86
2021/12/18 06:00:11;;;;;;;;;;;4.40;99.90;;;;;;5097402;28;20043;-86
2021/12/18 06:02:38;;;;;;;;;;;4.40;99.90;;;;;;5096865;28;20094;-84
2021/12/18 06:05:05;;;;;;;;;;;4.40;99.90;;;;;;5097341;28;20039;-86
2021/12/18 06:07:38;;;;;;;;;;;4.30;99.90;;;;;;5097339;28;19961;-87
2021/12/18 06:10:05;;;;;;;;;;;4.60;99.90;;;;;;5122262;27;19978;-86
2021/12/18 06:12:32;;;;;;;;;;;4.30;99.90;;;;;;5138371;27;20033;-85
2021/12/18 06:14:59;;;;;;;;;;;4.30;99.90;;;;;;5137377;27;19947;-86
2021/12/18 06:17:27;;;;;;;;;;;4.30;99.90;;;;;;5117933;28;20036;-84
2021/12/18 06:19:53;;;;;;;;;;;4.40;99.90;;;;;;5117682;27;20036;-85
2021/12/18 06:22:20;;;;;;;;;;;4.20;99.90;;;;;;5128628;27;21932;-85
2021/12/18 06:24:47;;;;;;;;;;;4.20;99.90;;;;;;5117434;28;20045;-85
2021/12/18 06:27:13;;;;;;;;;;;4.30;99.90;;;;;;5117234;28;20389;-85
2021/12/18 06:29:42;;;;;;;;;;;4.40;99.90;;;;;;5134954;27;20035;-85
2021/12/18 06:32:08;;;;;;;;;;;4.50;99.90;;;;;;5137896;27;19975;-85
2021/12/18 06:34:36;;;;;;;;;;;4.20;99.90;;;;;;5137270;27;20041;-86
2021/12/18 06:37:03;;;;;;;;;;;4.20;99.90;;;;;;5137806;27;20064;-86
2021/12/18 06:39:30;;;;;;;;;;;4.30;99.90;;;;;;5121942;27;20032;-85
2021/12/18 06:41:57;;;;;;;;;;;4.30;99.90;;;;;;5118330;27;20041;-86
2021/12/18 06:44:24;;;;;;;;;;;4.30;99.90;;;;;;5117898;28;20061;-85
2021/12/18 06:46:50;;;;;;;;;;;4.30;99.90;;;;;;5122144;27;20474;-85
2021/12/18 06:49:17;;;;;;;;;;;4.30;99.90;;;;;;5118014;27;19948;-86
2021/12/18 06:51:45;;;;;;;;;;;4.30;99.90;;;;;;5115884;28;20034;-86
2021/12/18 06:54:12;;;;;;;;;;;4.40;99.90;;;;;;5116826;28;20036;-85
2021/12/18 06:56:38;;;;;;;;;;;4.40;99.90;;;;;;5116878;28;20034;-84
2021/12/18 06:59:05;;;;;;;;;;;4.40;99.90;;;;;;5116731;28;19996;-84
2021/12/18 07:01:32;;;;;;;;;;;4.30;99.90;;;;;;5116507;28;20038;-83
2021/12/18 07:03:59;;;;;;;;;;;4.50;99.90;;;;;;5116605;28;20066;-83
2021/12/18 07:06:25;;;;;;;;;;;4.50;99.90;;;;;;5116554;28;20005;-85
2021/12/18 07:08:53;;;;;;;;;;;4.30;99.90;;;;;;5116206;28;20498;-83
2021/12/18 07:11:20;;;;;;;;;;;4.40;99.90;;;;;;5115930;28;20034;-83
2021/12/18 07:13:47;;;;;;;;;;;4.60;99.90;;;;;;5116054;28;20372;-82
2021/12/18 07:16:13;;;;;;;;;;;4.90;99.90;;;;;;5116014;28;20021;-82
2021/12/18 07:18:40;;;;;;;;;;;4.70;99.90;;;;;;5113135;28;20024;-82
2021/12/18 07:21:07;;;;;;;;;;;4.50;99.90;;;;;;5115715;28;20040;-83
2021/12/18 07:23:34;;;;;;;;;;;4.60;99.90;;;;;;5115579;28;20069;-82
2021/12/18 07:26:02;;;;;;;;;;;4.30;99.90;;;;;;5115866;28;20039;-82
2021/12/18 07:28:29;;;;;;;;;;;4.50;99.90;;;;;;5115782;28;19943;-82
2021/12/18 07:30:55;;;;;;;;;;;4.40;99.90;;;;;;5112963;28;20039;-82
2021/12/18 07:33:22;;;;;;;;;;;4.40;99.90;;;;;;5115049;28;20384;-82
2021/12/18 07:35:49;;;;;;;;;;;4.70;99.90;;;;;;5114483;28;20040;-82
2021/12/18 07:38:16;;;;;;;;;;;4.40;99.90;;;;;;5116159;28;19955;-81
2021/12/18 07:40:43;;;;;;;;;;;4.40;99.90;;;;;;5115754;28;20058;-83
2021/12/18 07:43:11;;;;;;;;;;;4.30;99.90;;;;;;5115905;28;20060;-83
2021/12/18 07:45:38;;;;;;;;;;;4.30;99.90;;;;;;5115777;28;20039;-83
2021/12/18 07:48:05;;;;;;;;;;;4.30;99.90;;;;;;5115770;28;20057;-83
2021/12/18 07:50:32;;;;;;;;;;;4.30;99.90;;;;;;5115549;28;20447;-83
2021/12/18 07:52:59;;;;;;;;;;;4.40;99.90;;;;;;5115565;28;20370;-82
2021/12/18 07:55:25;;;;;;;;;;;4.40;99.90;;;;;;5115731;28;20045;-83
2021/12/18 07:57:54;;;;;;;;;;;4.30;99.90;;;;;;5115493;28;20037;-83
2021/12/18 08:00:22;;;;;;;;;;;4.30;99.90;;;;;;5115329;28;19986;-83
2021/12/18 08:02:49;;;;;;;;;;;4.30;99.90;;;;;;5115093;28;20054;-83
2021/12/18 08:05:16;;;;;;;;;;;4.30;99.90;;;;;;5115304;28;20036;-83
2021/12/18 08:07:43;;;;;;;;;;;4.30;99.90;;;;;;5115389;28;20039;-82
2021/12/18 08:10:09;;;;;;;;;;;4.50;99.90;;;;;;5114895;28;20062;-83
2021/12/18 08:12:36;;;;;;;;;;;4.40;99.90;;;;;;5114739;28;20043;-83
2021/12/18 08:15:03;;;;;;;;;;;4.50;99.90;;;;;;5114726;28;20000;-84
2021/12/18 08:17:32;;;;;;;;;;;4.50;99.90;;;;;;5114232;28;19945;-84
2021/12/18 08:19:58;;;;;;;;;;;4.50;99.90;;;;;;5114493;28;19995;-83
2021/12/18 08:22:25;;;;;;;;;;;4.40;99.90;;;;;;5114359;28;20367;-82
2021/12/18 08:24:52;;;;;;;;;;;4.50;99.90;;;;;;5114803;28;20052;-83
2021/12/18 08:27:19;;;;;;;;;;;4.70;99.90;;;;;;5114905;28;20055;-83
2021/12/18 08:29:45;;;;;;;;;;;4.50;99.90;;;;;;5115024;28;20041;-83
2021/12/18 08:32:12;;;;;;;;;;;4.50;99.90;;;;;;5114449;28;20036;-83
2021/12/18 08:34:40;;;;;;;;;;;4.60;99.90;;;;;;5121978;27;20034;-83
2021/12/18 08:37:07;;;;;;;;;;;4.60;99.90;;;;;;5122853;27;20022;-84
2021/12/18 08:39:34;;;;;;;;;;;4.50;99.90;;;;;;5122361;27;20074;-82
2021/12/18 08:42:04;;;;;;;;;;;4.60;99.90;;;;;;5114555;28;20032;-83
2021/12/18 08:44:31;;;;;;;;;;;4.60;99.90;;;;;;5114546;28;19962;-83
2021/12/18 08:46:57;;;;;;;;;;;4.80;99.90;;;;;;5114488;28;20386;-83
2021/12/18 08:49:24;;;;;;;;;;;4.60;99.90;;;;;;5114420;28;20043;-83
2021/12/18 08:51:52;;;;;;;;;;;4.70;99.90;;;;;;5114536;28;20060;-84
2021/12/18 08:54:19;;;;;;;;;;;4.70;99.90;;;;;;5114487;28;19991;-83
2021/12/18 08:56:46;;;;;;;;;;;4.90;99.90;;;;;;5114168;28;19991;-83
2021/12/18 08:59:13;;;;;;;;;;;4.80;99.90;;;;;;5114006;28;20037;-82
2021/12/18 09:01:40;;;;;;;;;;;4.80;99.90;;;;;;5114115;28;19957;-83
2021/12/18 09:04:07;;;;;;;;;;;4.70;99.90;;;;;;5114438;28;20055;-83
2021/12/18 09:06:33;;;;;;;;;;;4.90;99.90;;;;;;5114426;28;20051;-83
2021/12/18 09:09:01;;;;;;;;;;;5.00;99.90;;;;;;5113286;28;20068;-84
2021/12/18 09:11:28;;;;;;;;;;;4.90;99.90;;;;;;5113069;28;20055;-84
2021/12/18 09:13:55;;;;;;;;;;;4.70;99.90;;;;;;5112224;28;20042;-84
2021/12/18 09:16:21;;;;;;;;;;;4.70;99.90;;;;;;5113942;28;20600;-83
2021/12/18 09:18:48;;;;;;;;;;;4.70;99.90;;;;;;5114227;28;20057;-83
2021/12/18 09:21:15;;;;;;;;;;;4.70;99.90;;;;;;5112095;28;20002;-84
2021/12/18 09:23:42;;;;;;;;;;;4.70;99.90;;;;;;5111903;28;20063;-82
2021/12/18 09:26:10;;;;;;;;;;;4.70;99.90;;;;;;5111939;28;20037;-82
2021/12/18 09:28:37;;;;;;;;;;;5.00;99.90;;;;;;5111949;28;20549;-84
2021/12/18 09:31:03;;;;;;;;;;;5.00;99.90;;;;;;5112183;28;20032;-83
2021/12/18 09:33:30;;;;;;;;;;;4.90;99.90;;;;;;5112057;28;20053;-83
2021/12/18 09:35:57;;;;;;;;;;;5.10;99.90;;;;;;5113326;28;20040;-82
2021/12/18 09:38:23;;;;;;;;;;;5.10;99.90;;;;;;5113815;28;20047;-83
2021/12/18 09:40:50;;;;;;;;;;;5.20;99.90;;;;;;5113860;28;20043;-85
2021/12/18 09:43:18;;;;;;;;;;;5.00;99.90;;;;;;5113854;28;20053;-83
2021/12/18 09:45:46;;;;;;;;;;;5.00;99.90;;;;;;5113866;28;19989;-84
2021/12/18 09:48:13;;;;;;;;;;;5.10;99.90;;;;;;5113819;28;19959;-83
2021/12/18 09:50:42;;;;;;;;;;;5.40;99.90;;;;;;5113822;28;20056;-83
2021/12/18 09:53:09;;;;;;;;;;;5.20;99.90;;;;;;5113732;28;19946;-82
2021/12/18 09:55:36;;;;;;;;;;;5.10;99.90;;;;;;5113624;28;20037;-84
2021/12/18 09:58:02;;;;;;;;;;;4.90;99.90;;;;;;5113597;28;20360;-84
2021/12/18 10:00:31;;;;;;;;;;;4.90;99.90;;;;;;5113922;28;20034;-84
2021/12/18 10:02:57;;;;;;;;;;;5.10;99.90;;;;;;5113569;28;20050;-83
2021/12/18 10:05:26;;;;;;;;;;;4.80;99.90;;;;;;5113652;28;20017;-84
2021/12/18 10:08:09;;;;;;;;;;;4.90;99.90;;;;;;5113777;28;20037;-84
2021/12/18 10:10:36;;;;;;;;;;;4.90;99.90;;;;;;5113371;28;20361;-84
2021/12/18 10:13:04;;;;;;;;;;;4.90;99.90;;;;;;5113789;28;19998;-84
2021/12/18 10:15:32;;;;;;;;;;;4.90;99.90;;;;;;5113701;28;20039;-84
2021/12/18 10:18:06;;;;;;;;;;;4.90;99.90;;;;;;5113576;28;20049;-84
2021/12/18 10:20:33;;;;;;;;;;;4.90;99.90;;;;;;5113471;28;20045;-84
2021/12/18 10:23:02;;;;;;;;;;;4.80;99.90;;;;;;5113731;28;20042;-84
2021/12/18 10:25:30;;;;;;;;;;;4.80;99.90;;;;;;5115326;28;19970;-84
2021/12/18 10:28:00;;;;;;;;;;;4.90;99.90;;;;;;5117496;28;19991;-85
2021/12/18 10:30:27;;;;;;;;;;;4.90;99.90;;;;;;5117686;28;19945;-84
2021/12/18 10:32:59;;;;;;;;;;;4.70;99.90;;;;;;5117194;28;20051;-84
2021/12/18 10:35:45;;;;;;;;;;;5.10;99.90;;;;;;5117156;28;20455;-84
2021/12/18 10:38:27;;;;;;;;;;;5.20;99.90;;;;;;5117320;28;20048;-83
2021/12/18 10:40:54;;;;;;;;;;;5.30;99.90;;;;;;5116319;28;20004;-83
2021/12/18 10:43:20;;;;;;;;;;;5.50;99.90;;;;;;5116924;28;20042;-83
2021/12/18 10:45:47;;;;;;;;;;;5.40;99.90;;;;;;5117080;28;19973;-83
2021/12/18 10:48:16;;;;;;;;;;;5.40;99.90;;;;;;5116976;28;20039;-83
2021/12/18 10:50:44;;;;;;;;;;;5.30;99.90;;;;;;5117254;28;20007;-85
2021/12/18 10:53:13;;;;;;;;;;;5.30;99.90;;;;;;5117144;28;19996;-83
2021/12/18 10:55:43;;;;;;;;;;;5.50;99.90;;;;;;5116764;28;20379;-84
2021/12/18 10:58:11;;;;;;;;;;;5.40;99.90;;;;;;5116680;28;20036;-84
2021/12/18 11:00:39;;;;;;;;;;;5.20;99.90;;;;;;5116879;28;19948;-84
2021/12/18 11:03:18;;;;;;;;;;;5.00;99.90;;;;;;5116674;28;20047;-84
2021/12/18 11:06:01;;;;;;;;;;;5.00;99.90;;;;;;5116460;28;20093;-84
2021/12/18 11:08:27;;;;;;;;;;;5.00;99.90;;;;;;5116421;28;20056;-85
2021/12/18 11:13:38;;;;;;;;;;;5.10;99.90;;;;;;5116744;28;20015;-84
2021/12/18 11:13:48;;;;;;;;;;;5.00;99.90;;;;;;5116241;28;19949;-85
2021/12/18 11:16:15;;;;;;;;;;;5.10;99.90;;;;;;5116331;28;19948;-84
2021/12/18 11:18:44;;;;;;;;;;;5.00;99.90;;;;;;5116404;28;20036;-84
2021/12/18 11:21:10;;;;;;;;;;;5.00;99.90;;;;;;5116242;28;20038;-84
2021/12/18 11:23:39;;;;;;;;;;;5.00;99.90;;;;;;5116438;28;20044;-84
2021/12/18 11:26:06;;;;;;;;;;;5.10;99.90;;;;;;5116215;28;19956;-83
2021/12/18 11:28:35;;;;;;;;;;;5.00;99.90;;;;;;5116308;28;20002;-84
2021/12/18 11:31:02;;;;;;;;;;;5.10;99.90;;;;;;5116432;28;20040;-84
2021/12/18 11:33:30;;;;;;;;;;;5.10;99.90;;;;;;5115890;28;19952;-84
2021/12/18 11:35:59;;;;;;;;;;;5.10;99.90;;;;;;5115872;28;20050;-83
2021/12/18 11:38:27;;;;;;;;;;;5.10;99.90;;;;;;5115474;28;19951;-85
2021/12/18 11:40:53;;;;;;;;;;;5.10;99.90;;;;;;5116000;28;20035;-85
2021/12/18 11:43:30;;;;;;;;;;;5.20;99.90;;;;;;5116058;28;20057;-84
2021/12/18 11:45:57;;;;;;;;;;;5.00;99.90;;;;;;5115747;28;20059;-84
2021/12/18 11:48:24;;;;;;;;;;;5.00;99.90;;;;;;5116416;28;20048;-86
2021/12/18 11:50:51;;;;;;;;;;;5.00;99.90;;;;;;5116159;28;20020;-84
2021/12/18 11:53:20;;;;;;;;;;;5.00;99.90;;;;;;5115718;28;20098;-84
2021/12/18 11:55:57;;;;;;;;;;;5.00;99.90;;;;;;5115713;28;19951;-83
2021/12/18 11:58:25;;;;;;;;;;;5.10;99.90;;;;;;5115770;28;20460;-85
2021/12/18 12:00:52;;;;;;;;;;;5.20;99.90;;;;;;5115835;28;20055;-84
2021/12/18 12:03:35;;;;;;;;;;;5.30;99.90;;;;;;5115397;28;20398;-84
2021/12/18 12:06:02;;;;;;;;;;;5.20;99.90;;;;;;5115441;28;20062;-85
2021/12/18 12:08:34;;;;;;;;;;;5.30;99.90;;;;;;5115469;28;20006;-84
2021/12/18 12:11:18;;;;;;;;;;;5.20;99.90;;;;;;5115159;28;20437;-84
2021/12/18 12:13:52;;;;;;;;;;;5.10;99.90;;;;;;5115416;28;20045;-84
2021/12/18 12:16:18;;;;;;;;;;;5.10;99.90;;;;;;5115256;28;20038;-84
2021/12/18 12:19:03;;;;;;;;;;;5.20;99.90;;;;;;5115284;28;20041;-84
2021/12/18 12:21:47;;;;;;;;;;;5.10;99.90;;;;;;5115394;28;20053;-83
2021/12/18 12:24:16;;;;;;;;;;;5.10;99.90;;;;;;5115054;28;20052;-84
2021/12/18 12:26:43;;;;;;;;;;;5.10;99.90;;;;;;5114991;28;20492;-84
2021/12/18 12:29:13;;;;;;;;;;;5.10;99.90;;;;;;5115095;28;20053;-84
2021/12/18 12:31:52;;;;;;;;;;;4.90;99.90;;;;;;5114859;28;19949;-84
2021/12/18 12:34:23;;;;;;;;;;;5.00;99.90;;;;;;5115059;28;20033;-84
2021/12/18 12:36:50;;;;;;;;;;;5.00;99.90;;;;;;5115041;28;19992;-84
2021/12/18 12:39:18;;;;;;;;;;;5.10;99.90;;;;;;5114847;28;20009;-84
2021/12/18 12:41:49;;;;;;;;;;;5.20;99.90;;;;;;5114761;28;20042;-84
2021/12/18 12:44:52;;;;;;;;;;;5.20;99.90;;;;;;5114647;28;19952;-85
2021/12/18 12:47:19;;;;;;;;;;;5.20;99.90;;;;;;5052041;28;19953;-84
2021/12/18 12:49:47;;;;;;;;;;;5.20;99.90;;;;;;5101525;28;20038;-82
2021/12/18 12:52:14;;;;;;;;;;;5.20;99.90;;;;;;5114542;28;20045;-84
2021/12/18 12:54:44;;;;;;;;;;;5.10;99.90;;;;;;5114449;28;19958;-84
2021/12/18 12:57:30;;;;;;;;;;;5.10;99.90;;;;;;5114400;28;20402;-84
2021/12/18 13:00:11;;;;;;;;;;;5.10;99.90;;;;;;5114477;28;19953;-85
2021/12/18 13:02:40;;;;;;;;;;;5.30;99.90;;;;;;5114309;28;20480;-85
2021/12/18 13:05:07;;;;;;;;;;;5.20;99.90;;;;;;5114412;28;20393;-85
2021/12/18 13:07:35;;;;;;;;;;;5.10;99.90;;;;;;5114977;28;20008;-83
2021/12/18 13:10:03;;;;;;;;;;;5.20;99.90;;;;;;5114063;28;20492;-84
2021/12/18 13:12:30;;;;;;;;;;;5.30;99.90;;;;;;5114186;28;20371;-84
2021/12/18 13:14:57;;;;;;;;;;;5.10;99.90;;;;;;5114273;28;19988;-83
2021/12/18 13:17:24;;;;;;;;;;;5.20;99.90;;;;;;5114165;28;20044;-84
2021/12/18 13:19:54;;;;;;;;;;;5.30;99.90;;;;;;5114068;28;20044;-83
2021/12/18 13:22:24;;;;;;;;;;;5.30;99.90;;;;;;5114256;28;20046;-84
2021/12/18 13:25:00;;;;;;;;;;;5.20;99.90;;;;;;5114137;28;20053;-84
2021/12/18 13:27:28;;;;;;;;;;;5.20;99.90;;;;;;5114279;28;20047;-84
2021/12/18 13:30:09;;;;;;;;;;;5.30;99.90;;;;;;5114047;28;20032;-84
2021/12/18 13:32:35;;;;;;;;;;;5.20;99.90;;;;;;5114059;28;19987;-83
2021/12/18 13:35:02;;;;;;;;;;;5.20;99.90;;;;;;5114137;28;20045;-83
2021/12/18 13:37:29;;;;;;;;;;;5.20;99.90;;;;;;5114050;28;20034;-83
2021/12/18 13:39:56;;;;;;;;;;;5.30;99.90;;;;;;5113861;28;20039;-84
2021/12/18 13:42:24;;;;;;;;;;;5.30;99.90;;;;;;5114155;28;20043;-83
2021/12/18 13:44:53;;;;;;;;;;;5.30;99.90;;;;;;5113715;28;20430;-84
2021/12/18 13:47:23;;;;;;;;;;;5.30;99.90;;;;;;5113827;28;20391;-83
2021/12/18 13:49:50;;;;;;;;;;;5.40;99.90;;;;;;5113952;28;20014;-84
2021/12/18 13:52:30;;;;;;;;;;;5.30;99.90;;;;;;5113646;28;20344;-83
2021/12/18 13:54:57;;;;;;;;;;;5.50;99.90;;;;;;5113773;28;20045;-83
2021/12/18 13:57:24;;;;;;;;;;;5.50;99.90;;;;;;5113734;28;20037;-84
2021/12/18 13:59:58;;;;;;;;;;;5.10;99.90;;;;;;5114569;28;19950;-82
2021/12/18 14:02:24;;;;;;;;;;;5.10;99.90;;;;;;5117784;28;20034;-83
2021/12/18 14:04:51;;;;;;;;;;;5.10;99.90;;;;;;5117762;28;20412;-84
2021/12/18 14:07:18;;;;;;;;;;;5.30;99.90;;;;;;5117681;28;20081;-84
2021/12/18 14:09:45;;;;;;;;;;;5.10;99.90;;;;;;5117468;28;20501;-84
2021/12/18 14:12:15;;;;;;;;;;;5.20;99.90;;;;;;5117735;28;20043;-85
2021/12/18 14:14:43;;;;;;;;;;;5.20;99.90;;;;;;5117572;28;20415;-83
2021/12/18 14:17:15;;;;;;;;;;;5.10;99.90;;;;;;5117658;28;20052;-84
2021/12/18 14:19:43;;;;;;;;;;;5.10;99.90;;;;;;5117424;28;20003;-83
2021/12/18 14:22:10;;;;;;;;;;;5.10;99.90;;;;;;5117302;28;19957;-84
2021/12/18 14:24:37;;;;;;;;;;;5.00;99.90;;;;;;5117205;28;20054;-83
2021/12/18 14:27:05;;;;;;;;;;;5.10;99.90;;;;;;5117307;28;20153;-83
2021/12/18 14:29:33;;;;;;;;;;;5.10;99.90;;;;;;5117621;28;19955;-84
2021/12/18 14:32:01;;;;;;;;;;;5.00;99.90;;;;;;5117096;28;20039;-83
2021/12/18 14:34:30;;;;;;;;;;;5.10;99.90;;;;;;5117152;28;20036;-84
2021/12/18 14:37:02;;;;;;;;;;;5.10;99.90;;;;;;5117405;28;20032;-84
2021/12/18 14:39:36;;;;;;;;;;;5.20;99.90;;;;;;5117221;28;20058;-84
2021/12/18 14:42:10;;;;;;;;;;;5.20;99.90;;;;;;5116993;28;20036;-84
2021/12/18 14:44:42;;;;;;;;;;;5.20;99.90;;;;;;5117180;28;20063;-84
2021/12/18 14:47:10;;;;;;;;;;;5.20;99.90;;;;;;5116897;28;20007;-84
2021/12/18 14:49:53;;;;;;;;;;;5.10;99.90;;;;;;5117141;28;20044;-84
2021/12/18 14:52:20;;;;;;;;;;;5.10;99.90;;;;;;5117038;28;20044;-84
2021/12/18 14:54:48;;;;;;;;;;;5.10;99.90;;;;;;5116960;28;19951;-83
2021/12/18 14:57:16;;;;;;;;;;;5.20;99.90;;;;;;5116768;28;19948;-84
2021/12/18 14:59:43;;;;;;;;;;;5.40;99.90;;;;;;5115735;28;20030;-83
2021/12/18 15:02:09;;;;;;;;;;;5.30;99.90;;;;;;5115603;28;20042;-84
2021/12/18 15:04:36;;;;;;;;;;;5.30;99.90;;;;;;5116328;28;19971;-86
2021/12/18 15:07:10;;;;;;;;;;;5.30;99.90;;;;;;5116257;28;19991;-85
2021/12/18 15:09:38;;;;;;;;;;;5.20;99.90;;;;;;5115139;28;19959;-85